createdAt,value
2022-09-28T17:46:47.321Z,24.77
2022-09-28T17:49:35.217Z,25.48
2022-09-28T17:52:23.220Z,25.87
2022-09-28T17:55:11.906Z,26.10
2022-09-28T17:58:01.557Z,26.23
2022-09-28T18:00:52.443Z,26.30
2022-09-28T18:03:40.298Z,26.36
2022-09-28T18:06:28.201Z,26.40
2022-09-28T18:09:16.160Z,26.43
2022-09-28T18:12:05.651Z,26.47
2022-09-28T18:14:53.765Z,26.49
2022-09-28T18:17:41.608Z,26.50
2022-09-28T18:20:29.660Z,26.52
2022-09-28T18:23:17.766Z,26.54
2022-09-28T18:26:13.948Z,26.54
2022-09-28T18:29:01.677Z,26.56
2022-09-28T18:31:49.488Z,26.56
2022-09-28T18:34:38.025Z,26.56
2022-09-28T18:37:25.768Z,26.57
2022-09-28T18:40:13.899Z,26.56
2022-09-28T18:43:02.790Z,26.58
2022-09-28T18:45:50.516Z,26.58
2022-09-28T18:48:40.487Z,26.58
2022-09-28T18:51:28.530Z,26.58
2022-09-28T18:54:17.006Z,26.58
2022-09-28T18:57:05.752Z,26.59
2022-09-28T18:59:53.525Z,26.58
2022-09-28T19:02:41.381Z,26.58
2022-09-28T19:05:29.247Z,26.57
2022-09-28T19:08:17.002Z,26.59
2022-09-28T19:11:14.677Z,26.58
2022-09-28T19:14:03.596Z,26.59
2022-09-28T19:16:51.329Z,26.58
2022-09-28T19:19:39.320Z,26.58
2022-09-28T19:22:27.128Z,26.58
2022-09-28T19:25:15.779Z,26.58
2022-09-28T19:28:03.493Z,26.59
2022-09-28T19:30:59.272Z,26.58
2022-09-28T19:33:48.136Z,26.58
2022-09-28T19:36:35.913Z,26.58
2022-09-28T19:39:23.698Z,26.57
2022-09-28T19:42:11.414Z,26.58
2022-09-28T19:44:59.159Z,26.57
2022-09-28T19:47:49.101Z,26.57
2022-09-28T19:50:36.910Z,26.57
2022-09-28T19:53:26.849Z,26.57
2022-09-28T19:56:16.533Z,26.58
2022-09-28T19:59:04.706Z,26.57
2022-09-28T20:01:55.719Z,26.56
2022-09-28T20:04:43.650Z,26.56
2022-09-28T20:07:33.285Z,26.56
2022-09-28T20:10:21.099Z,26.53
2022-09-28T20:13:08.840Z,26.52
2022-09-28T20:15:56.621Z,26.53
2022-09-28T20:18:50.257Z,26.53
2022-09-28T20:21:38.086Z,26.53
2022-09-28T20:24:25.966Z,26.52
2022-09-28T20:27:13.768Z,26.53
2022-09-28T20:30:01.768Z,26.53
2022-09-28T20:32:49.782Z,26.52
2022-09-28T20:35:40.350Z,26.54
2022-09-28T20:38:28.072Z,26.53
2022-09-28T20:41:18.431Z,26.53
2022-09-28T20:44:06.883Z,26.53
2022-09-28T20:46:56.552Z,26.53
2022-09-28T20:49:44.618Z,26.52
2022-09-28T20:52:32.429Z,26.53
2022-09-28T20:55:20.206Z,26.52
2022-09-28T20:58:07.954Z,26.52
2022-09-28T21:01:20.890Z,26.53
2022-09-28T21:04:10.289Z,26.52
2022-09-28T21:06:57.999Z,26.52
2022-09-28T21:09:45.805Z,26.51
2022-09-28T21:12:34.193Z,26.49
2022-09-28T21:15:21.907Z,26.47
2022-09-28T21:18:09.653Z,26.47
2022-09-28T21:20:57.433Z,26.44
2022-09-28T21:23:45.494Z,26.42
2022-09-28T21:26:34.944Z,26.40
2022-09-28T21:29:22.705Z,26.38
2022-09-28T21:32:10.471Z,26.36
2022-09-28T21:34:58.285Z,26.34
2022-09-28T21:37:46.568Z,26.31
2022-09-28T21:40:34.428Z,26.29
2022-09-28T21:43:23.133Z,26.27
2022-09-28T21:46:11.297Z,26.25
2022-09-28T21:48:59.269Z,26.24
2022-09-28T21:51:47.066Z,26.21
2022-09-28T21:54:37.233Z,26.18
2022-09-28T21:57:24.981Z,26.17
2022-09-28T22:00:18.552Z,26.13
2022-09-28T22:03:06.439Z,26.12
2022-09-28T22:05:54.266Z,26.10
2022-09-28T22:08:42.289Z,26.09
2022-09-28T22:11:30.021Z,26.06
2022-09-28T22:14:17.788Z,26.04
2022-09-28T22:17:05.504Z,26.03
2022-09-28T22:19:53.339Z,26.01
2022-09-28T22:22:41.057Z,25.99
2022-09-28T22:25:28.827Z,25.97
2022-09-28T22:28:16.573Z,25.95
2022-09-28T22:31:05.069Z,25.94
2022-09-28T22:33:53.524Z,25.92
2022-09-28T22:36:41.308Z,25.90
2022-09-28T22:39:34.335Z,25.88
2022-09-28T22:42:25.138Z,25.86
2022-09-28T22:45:12.934Z,25.84
2022-09-28T22:48:00.800Z,25.82
2022-09-28T22:50:50.671Z,25.81
2022-09-28T22:53:38.522Z,25.80
2022-09-28T22:56:26.325Z,25.78
2022-09-28T22:59:14.089Z,25.76
2022-09-28T23:02:01.887Z,25.74
2022-09-28T23:04:49.692Z,25.72
2022-09-28T23:07:37.970Z,25.71
2022-09-28T23:10:25.719Z,25.70
2022-09-28T23:13:15.520Z,25.68
2022-09-28T23:16:10.609Z,25.67
2022-09-28T23:18:58.426Z,25.65
2022-09-28T23:21:46.216Z,25.63
2022-09-28T23:24:33.955Z,25.62
2022-09-28T23:27:21.735Z,25.61
2022-09-28T23:30:10.073Z,25.60
2022-09-28T23:32:57.825Z,25.58
2022-09-28T23:35:45.759Z,25.57
2022-09-28T23:38:33.518Z,25.55
2022-09-28T23:41:21.320Z,25.53
2022-09-28T23:44:09.084Z,25.52
2022-09-28T23:46:57.195Z,25.51
2022-09-28T23:49:44.981Z,25.48
2022-09-28T23:52:33.092Z,25.47
2022-09-28T23:55:20.889Z,25.46
2022-09-28T23:58:09.339Z,25.45
